Time;durP1;ratioP1;P1;durP2;ratioP2;P2;SDS_P1;SDS_P2;PMS_P1;PMS_P2;Temp;Humidity;BMP_temperature;BMP_pressure;BME280_temperature;BME280_humidity;BME280_pressure;Samples;Min_cycle;Max_cycle;Signal;HPM_P1;HPM_P2
2022/10/05 00:01:34;;;;;;;9.88;6.88;;;;;;;14.69;75.45;101676.44;5008904;28;20034;-67
2022/10/05 00:04:14;;;;;;;11.30;7.07;;;;;;;14.72;75.44;101676.34;5002041;28;20060;-68
2022/10/05 00:06:56;;;;;;;12.27;6.63;;;;;;;14.72;75.45;101680.75;5003319;28;20113;-68
2022/10/05 00:09:24;;;;;;;9.80;6.90;;;;;;;14.73;75.54;101671.88;5005957;28;20038;-68
2022/10/05 00:11:51;;;;;;;11.00;6.63;;;;;;;14.73;75.63;101674.53;5009952;28;20053;-68
2022/10/05 00:14:30;;;;;;;13.48;6.78;;;;;;;14.73;75.46;101666.56;5002914;28;20456;-68
2022/10/05 00:16:57;;;;;;;10.57;6.72;;;;;;;14.72;75.68;101670.13;4996151;28;20046;-68
2022/10/05 00:19:33;;;;;;;12.60;6.97;;;;;;;14.72;75.60;101671.03;5007123;28;20051;-68
2022/10/05 00:22:31;;;;;;;10.43;7.32;;;;;;;14.73;75.65;101675.41;5005321;28;20046;-67
2022/10/05 00:25:10;;;;;;;10.57;7.15;;;;;;;14.72;75.38;101668.38;5001927;28;20049;-68
2022/10/05 00:27:37;;;;;;;10.55;7.05;;;;;;;14.73;75.82;101658.59;5013684;28;20118;-68
2022/10/05 00:30:18;;;;;;;9.82;7.18;;;;;;;14.72;75.67;101660.41;5006942;28;20043;-68
2022/10/05 00:32:46;;;;;;;13.25;7.32;;;;;;;14.70;75.76;101656.09;5002872;28;20043;-68
2022/10/05 00:35:17;;;;;;;10.90;7.07;;;;;;;14.68;75.74;101642.00;5008048;28;20041;-68
2022/10/05 00:37:52;;;;;;;11.13;6.85;;;;;;;14.68;75.81;101647.31;5000485;28;20101;-68
2022/10/05 00:40:44;;;;;;;8.60;6.75;;;;;;;14.67;75.87;101657.03;5008397;28;20054;-67
2022/10/05 00:43:23;;;;;;;13.23;7.13;;;;;;;14.65;76.07;101653.53;5003569;28;20043;-68
2022/10/05 00:46:05;;;;;;;11.60;7.10;;;;;;;14.63;76.04;101647.44;4997338;28;20049;-68
2022/10/05 00:48:43;;;;;;;12.13;7.25;;;;;;;14.63;76.09;101646.53;5005656;28;20520;-68
2022/10/05 00:51:36;;;;;;;9.68;6.55;;;;;;;14.63;76.19;101647.44;5006200;28;20050;-67
2022/10/05 00:54:32;;;;;;;11.88;7.45;;;;;;;14.62;76.20;101645.69;4998073;28;20049;-68
2022/10/05 00:57:20;;;;;;;12.20;7.18;;;;;;;14.60;76.29;101645.72;5005635;28;20093;-68
2022/10/05 01:00:07;;;;;;;14.85;7.78;;;;;;;14.62;76.29;101645.69;5002432;28;20046;-68
2022/10/05 01:02:50;;;;;;;12.68;7.13;;;;;;;14.59;76.38;101646.66;5001481;28;20062;-68
2022/10/05 01:05:50;;;;;;;12.35;7.07;;;;;;;14.57;76.49;101642.31;5005196;28;20070;-67
2022/10/05 01:08:39;;;;;;;10.27;7.18;;;;;;;14.56;76.50;101649.41;4996741;28;20510;-67
2022/10/05 01:11:21;;;;;;;12.60;7.70;;;;;;;14.55;76.68;101649.47;5021593;28;20527;-67
2022/10/05 01:14:19;;;;;;;11.63;7.60;;;;;;;14.55;76.56;101641.53;5005525;28;20049;-68
2022/10/05 01:16:58;;;;;;;9.88;7.05;;;;;;;14.55;76.86;101633.56;5003062;28;20057;-68
2022/10/05 01:20:02;;;;;;;11.35;7.88;;;;;;;14.55;76.76;101636.22;5003063;28;20058;-68
2022/10/05 01:23:33;;;;;;;10.50;7.25;;;;;;;14.53;76.84;101624.78;5000803;28;20492;-68
2022/10/05 01:26:37;;;;;;;11.05;7.40;;;;;;;14.52;77.07;101626.56;5005775;28;20129;-68
2022/10/05 01:29:36;;;;;;;10.18;7.13;;;;;;;14.53;77.03;101616.81;5004592;28;20121;-68
2022/10/05 01:32:50;;;;;;;10.73;7.43;;;;;;;14.53;77.15;101619.47;5014353;28;20109;-68
2022/10/05 01:35:35;;;;;;;11.77;7.80;;;;;;;14.49;77.08;101610.75;5003338;28;20046;-68
2022/10/05 01:38:23;;;;;;;9.93;7.43;;;;;;;14.50;77.08;101616.91;5001317;28;20511;-68
2022/10/05 01:41:18;;;;;;;11.98;7.97;;;;;;;14.49;77.26;101615.19;5006558;28;20042;-68
2022/10/05 01:43:57;;;;;;;12.93;7.47;;;;;;;14.48;77.28;101611.69;5003813;28;20093;-68
2022/10/05 01:46:37;;;;;;;11.05;7.45;;;;;;;14.48;77.86;101616.09;5002837;28;20054;-67
2022/10/05 01:49:41;;;;;;;13.70;7.57;;;;;;;14.46;77.34;101608.22;5000912;28;20046;-68
2022/10/05 01:53:05;;;;;;;14.25;7.88;;;;;;;14.44;77.36;101602.97;5004812;28;20041;-67
2022/10/05 01:56:00;;;;;;;13.25;7.40;;;;;;;14.41;77.32;101596.88;5005088;28;20054;-68
2022/10/05 01:58:37;;;;;;;;;;;;;;;14.39;77.52;101601.38;5004255;28;20043;-68
2022/10/05 02:01:34;;;;;;;11.95;7.18;;;;;;;14.39;77.49;101593.44;5003074;28;19980;-68
2022/10/05 02:04:16;;;;;;;12.98;7.28;;;;;;;14.39;77.62;101604.03;5005836;28;20069;-68
2022/10/05 02:07:13;;;;;;;10.13;7.10;;;;;;;14.36;77.65;101598.84;5008417;28;20073;-67
2022/10/05 02:09:59;;;;;;;10.07;7.15;;;;;;;14.37;77.69;101595.25;5009560;28;20073;-67
2022/10/05 02:12:35;;;;;;;10.35;7.65;;;;;;;14.40;77.66;101589.81;5005691;28;20829;-67
2022/10/05 02:15:21;;;;;;;10.48;7.10;;;;;;;14.38;77.65;101581.94;5009660;28;20493;-68
2022/10/05 02:18:11;;;;;;;11.55;6.97;;;;;;;14.38;77.79;101576.63;5008213;28;20129;-68
2022/10/05 02:20:42;;;;;;;12.32;7.60;;;;;;;14.36;77.92;101583.78;5006288;28;20137;-67
2022/10/05 02:23:22;;;;;;;11.10;7.22;;;;;;;14.36;77.82;101574.97;4996320;28;20138;-69
2022/10/05 02:25:53;;;;;;;10.88;7.05;;;;;;;14.34;77.93;101569.72;5008176;28;20571;-69
2022/10/05 02:28:37;;;;;;;11.50;7.10;;;;;;;14.32;77.89;101562.72;5018167;28;20050;-68
2022/10/05 02:31:12;;;;;;;12.15;7.35;;;;;;;14.32;78.10;101565.34;4994318;28;20219;-68
2022/10/05 02:33:40;;;;;;;13.20;7.05;;;;;;;14.29;78.15;101561.88;5009302;28;20038;-69
2022/10/05 02:36:18;;;;;;;10.48;7.38;;;;;;;14.27;78.18;101561.09;5009491;28;20047;-68
2022/10/05 02:39:23;;;;;;;12.77;7.85;;;;;;;14.28;78.17;101562.84;5003270;28;20053;-68
2022/10/05 02:42:26;;;;;;;11.75;7.43;;;;;;;14.28;78.12;101548.69;5020877;28;20046;-68
2022/10/05 02:45:29;;;;;;;13.45;7.60;;;;;;;14.29;78.26;101547.78;5013129;28;20483;-69
2022/10/05 02:48:15;;;;;;;11.10;6.85;;;;;;;14.25;78.58;101539.06;5006805;28;20058;-69
2022/10/05 02:51:01;;;;;;;9.70;7.20;;;;;;;14.26;78.43;101543.44;5002864;28;20046;-69
2022/10/05 02:53:57;;;;;;;9.43;7.13;;;;;;;14.24;78.30;101529.38;5007094;28;20046;-69
2022/10/05 02:56:35;;;;;;;10.70;7.72;;;;;;;14.24;78.53;101536.47;5018075;28;20049;-69
2022/10/05 02:59:08;;;;;;;11.43;7.40;;;;;;;14.23;78.65;101540.91;5009285;28;20050;-69
2022/10/05 03:02:11;;;;;;;11.05;7.53;;;;;;;14.23;78.49;101542.69;5008955;28;20054;-69
2022/10/05 03:05:11;;;;;;;11.10;7.10;;;;;;;14.21;78.59;101539.22;5003530;28;20051;-68
2022/10/05 03:08:12;;;;;;;12.13;7.47;;;;;;;14.23;78.58;101529.44;5024648;28;20034;-69
2022/10/05 03:11:02;;;;;;;13.73;7.35;;;;;;;14.21;78.56;101540.06;5006108;28;20050;-69
2022/10/05 03:13:47;;;;;;;11.30;7.22;;;;;;;14.20;78.45;101517.13;5021235;28;20413;-69
2022/10/05 03:17:02;;;;;;;11.63;7.60;;;;;;;14.20;78.66;101518.94;5000522;28;20068;-69
2022/10/05 03:20:09;;;;;;;9.32;6.97;;;;;;;14.18;78.71;101500.44;5005500;28;20065;-68
2022/10/05 03:22:49;;;;;;;10.77;7.65;;;;;;;14.16;78.68;101504.91;5000568;28;20078;-68
2022/10/05 03:25:51;;;;;;;11.88;7.53;;;;;;;14.12;78.76;101504.16;5003874;28;20047;-68
2022/10/05 03:28:48;;;;;;;13.07;8.00;;;;;;;14.10;78.75;101500.69;5020437;28;20129;-68
2022/10/05 03:31:55;;;;;;;10.63;7.57;;;;;;;14.07;78.80;101508.75;5019481;28;20063;-68
2022/10/05 03:34:36;;;;;;;12.50;7.07;;;;;;;14.06;79.32;101517.59;5002027;28;20050;-68
2022/10/05 03:37:19;;;;;;;11.23;7.13;;;;;;;14.05;79.03;101512.38;5008509;28;20054;-68
2022/10/05 03:40:08;;;;;;;11.35;7.25;;;;;;;14.03;79.11;101520.38;5005295;28;20337;-68
2022/10/05 03:42:46;;;;;;;13.05;7.68;;;;;;;14.00;79.24;101517.81;5003441;28;20129;-69
2022/10/05 03:45:36;;;;;;;10.05;7.32;;;;;;;13.98;79.20;101517.91;5009216;28;20046;-69
2022/10/05 03:48:27;;;;;;;11.45;7.25;;;;;;;13.97;79.45;101524.09;5017360;28;20105;-68
2022/10/05 03:51:09;;;;;;;13.75;6.75;;;;;;;13.97;79.45;101521.47;5012474;28;20043;-68
2022/10/05 03:53:46;;;;;;;10.85;7.60;;;;;;;13.99;79.43;101521.41;5000767;28;20050;-70
2022/10/05 03:56:28;;;;;;;15.63;7.78;;;;;;;13.98;79.63;101514.34;5006440;28;20046;-69
2022/10/05 03:59:31;;;;;;;11.88;6.93;;;;;;;13.97;79.37;101524.09;5007360;28;20042;-69
2022/10/05 04:02:05;;;;;;;;;;;;;;;13.94;79.40;101524.19;5002931;28;20520;-68
2022/10/05 04:04:42;;;;;;;11.88;7.75;;;;;;;13.94;79.49;101513.59;5008498;28;19933;-68
2022/10/05 04:07:27;;;;;;;12.77;7.35;;;;;;;13.94;79.72;101510.94;5005051;28;20050;-70
2022/10/05 04:09:55;;;;;;;;;;;;;;;13.90;79.62;101498.72;5022691;28;20369;-70
2022/10/05 04:12:50;;;;;;;12.55;7.15;;;;;;;13.92;79.50;101511.94;5005063;28;19930;-68
2022/10/05 04:15:29;;;;;;;11.23;7.38;;;;;;;13.88;79.58;101505.88;5022885;28;20558;-68
2022/10/05 04:18:12;;;;;;;11.73;7.43;;;;;;;13.89;79.67;101514.66;5003037;28;20038;-68
2022/10/05 04:20:50;;;;;;;12.05;7.57;;;;;;;13.89;79.75;101517.31;5000371;28;20058;-68
2022/10/05 04:23:21;;;;;;;11.57;6.93;;;;;;;13.88;79.98;101516.47;5007947;28;20108;-68
2022/10/05 04:25:55;;;;;;;11.35;7.85;;;;;;;13.87;79.96;101511.19;4993158;28;20053;-69
2022/10/05 04:28:55;;;;;;;14.20;7.13;;;;;;;13.90;80.09;101516.41;5019735;28;20069;-68
2022/10/05 04:31:51;;;;;;;16.05;7.55;;;;;;;13.88;80.27;101507.63;5015446;28;20060;-68
2022/10/05 04:34:35;;;;;;;13.52;7.40;;;;;;;13.88;80.32;101508.53;4999684;28;20572;-68
2022/10/05 04:37:20;;;;;;;17.77;8.18;;;;;;;13.88;80.33;101507.63;5018769;28;20113;-70
2022/10/05 04:40:09;;;;;;;12.55;7.30;;;;;;;13.90;80.43;101505.81;4985805;28;20554;-67
2022/10/05 04:43:02;;;;;;;12.35;7.20;;;;;;;13.89;80.77;101496.97;5001745;28;20117;-67
2022/10/05 04:46:04;;;;;;;15.50;6.95;;;;;;;13.94;80.74;101496.81;5007167;28;20046;-68
2022/10/05 04:48:56;;;;;;;13.50;8.05;;;;;;;13.97;80.90;101500.25;5017023;28;20049;-67
2022/10/05 04:51:53;;;;;;;12.10;7.15;;;;;;;14.00;80.79;101495.75;5006392;28;20046;-68
2022/10/05 04:54:52;;;;;;;14.63;7.78;;;;;;;14.06;80.99;101498.19;5002614;28;20106;-68
2022/10/05 04:57:43;;;;;;;13.30;6.82;;;;;;;14.12;81.16;101497.97;5008502;28;20043;-68
2022/10/05 05:00:30;;;;;;;20.60;7.97;;;;;;;14.19;80.84;101498.63;5007522;28;20042;-68
2022/10/05 05:03:28;;;;;;;16.05;7.07;;;;;;;14.21;80.49;101500.31;5009080;28;20117;-68
2022/10/05 05:06:17;;;;;;;20.50;7.68;;;;;;;14.19;80.36;101486.25;5043375;28;20097;-68
2022/10/05 05:09:26;;;;;;;23.38;7.68;;;;;;;14.19;80.27;101499.50;5020754;28;20066;-67
2022/10/05 05:12:09;;;;;;;16.25;8.00;;;;;;;14.18;80.12;101497.78;5025087;28;20547;-68
2022/10/05 05:14:52;;;;;;;15.65;7.90;;;;;;;14.18;80.13;101495.13;5009580;28;20531;-68
2022/10/05 05:17:50;;;;;;;15.90;7.22;;;;;;;14.18;80.10;101495.13;5027134;28;20046;-68
2022/10/05 05:20:44;;;;;;;16.85;7.78;;;;;;;14.17;79.95;101495.16;5006270;28;20074;-67
2022/10/05 05:23:34;;;;;;;13.15;6.97;;;;;;;14.15;80.09;101489.91;5008218;28;20050;-67
2022/10/05 05:26:26;;;;;;;11.68;6.97;;;;;;;14.18;80.00;101494.25;5003613;28;20509;-67
2022/10/05 05:29:29;;;;;;;22.02;7.63;;;;;;;14.11;79.88;101489.16;5006770;28;20042;-68
2022/10/05 05:32:33;;;;;;;15.88;7.55;;;;;;;14.07;80.01;101491.97;5004650;28;20043;-66
2022/10/05 05:35:22;;;;;;;15.18;7.07;;;;;;;14.03;80.14;101491.22;5007488;28;20074;-69
2022/10/05 05:38:25;;;;;;;11.55;7.00;;;;;;;14.00;80.29;101485.13;5009511;28;20050;-67
2022/10/05 05:41:12;;;;;;;10.85;7.35;;;;;;;13.97;80.33;101479.03;5004891;28;20042;-67
2022/10/05 05:43:55;;;;;;;13.57;7.25;;;;;;;13.96;80.36;101490.56;5005118;28;20057;-67
2022/10/05 05:46:37;;;;;;;17.15;7.30;;;;;;;13.96;80.31;101484.38;5029033;28;20054;-67
2022/10/05 05:50:09;;;;;;;15.60;7.68;;;;;;;13.96;80.55;101485.25;5028349;28;20062;-68
2022/10/05 05:52:46;;;;;;;11.30;6.38;;;;;;;13.95;80.58;101480.88;5029440;28;20050;-67
2022/10/05 05:55:33;;;;;;;14.10;6.70;;;;;;;13.96;80.37;101479.97;5013045;28;20073;-68
2022/10/05 05:58:26;;;;;;;13.15;7.05;;;;;;;13.97;80.50;101484.34;5011221;28;20082;-67
2022/10/05 06:01:03;;;;;;;19.33;7.35;;;;;;;13.97;80.60;101483.47;5010718;28;20133;-67
2022/10/05 06:03:43;;;;;;;20.13;6.88;;;;;;;13.97;80.60;101471.09;5013179;28;20041;-67
2022/10/05 06:06:17;;;;;;;11.15;6.97;;;;;;;13.99;80.81;101481.63;5018439;28;20046;-68
2022/10/05 06:09:03;;;;;;;22.88;7.75;;;;;;;14.02;80.77;101481.53;5010118;28;20069;-68
2022/10/05 06:11:59;;;;;;;16.40;6.88;;;;;;;14.00;80.66;101480.72;5024045;28;20114;-68
2022/10/05 06:14:46;;;;;;;14.77;6.88;;;;;;;14.02;80.77;101478.00;5011026;28;20050;-68
2022/10/05 06:17:27;;;;;;;18.80;7.35;;;;;;;14.02;80.73;101478.00;5009906;28;20130;-68
2022/10/05 06:20:00;;;;;;;16.70;6.88;;;;;;;14.03;80.75;101474.44;5018241;28;20047;-68
2022/10/05 06:22:41;;;;;;;24.38;6.85;;;;;;;14.03;80.61;101469.13;5029406;28;20871;-68
2022/10/05 06:25:11;;;;;;;11.25;6.18;;;;;;;14.07;80.41;101476.06;5027975;28;20046;-68
2022/10/05 06:28:10;;;;;;;11.23;6.03;;;;;;;14.10;80.13;101468.88;5004158;28;20516;-68
2022/10/05 06:31:01;;;;;;;12.70;5.63;;;;;;;14.14;79.91;101477.59;5028780;28;20126;-68
2022/10/05 06:33:52;;;;;;;11.75;5.45;;;;;;;14.18;79.83;101481.00;5027498;28;20046;-68
2022/10/05 06:36:39;;;;;;;12.60;5.72;;;;;;;14.20;79.86;101485.31;5028154;28;20100;-68
2022/10/05 06:39:27;;;;;;;13.85;6.45;;;;;;;14.20;79.75;101479.16;5008870;28;20097;-68
2022/10/05 06:42:30;;;;;;;12.45;5.60;;;;;;;14.21;79.93;101480.88;5020582;28;20046;-68
2022/10/05 06:45:41;;;;;;;7.15;4.63;;;;;;;14.21;79.65;101479.09;5005342;28;20047;-68
2022/10/05 06:48:40;;;;;;;7.95;5.28;;;;;;;14.23;79.72;101482.56;5021126;28;20041;-68
2022/10/05 06:51:58;;;;;;;7.57;5.30;;;;;;;14.26;79.62;101481.56;5029034;28;20039;-67
2022/10/05 06:54:48;;;;;;;15.52;5.70;;;;;;;14.27;79.52;101485.97;5017476;28;20508;-67
2022/10/05 06:58:21;;;;;;;12.88;5.68;;;;;;;14.32;79.45;101473.41;5017877;28;20080;-67
2022/10/05 07:01:10;;;;;;;9.60;5.28;;;;;;;14.34;79.35;101474.25;5023611;28;20490;-67
2022/10/05 07:03:58;;;;;;;10.10;5.05;;;;;;;14.38;79.41;101477.63;5008698;28;20493;-67
2022/10/05 07:06:42;;;;;;;11.95;5.47;;;;;;;14.42;79.23;101481.91;5012164;28;20047;-67
2022/10/05 07:09:40;;;;;;;6.07;4.95;;;;;;;14.49;79.10;101471.94;5006251;28;20042;-67
2022/10/05 07:12:47;;;;;;;8.55;4.65;;;;;;;14.50;78.97;101469.22;5006794;28;20045;-67
2022/10/05 07:15:41;;;;;;;9.93;5.18;;;;;;;14.57;78.68;101475.16;4995721;28;20069;-68
2022/10/05 07:18:28;;;;;;;11.48;5.03;;;;;;;14.60;78.68;101475.91;5012069;28;20045;-67
2022/10/05 07:21:06;;;;;;;16.40;6.00;;;;;;;14.63;78.75;101477.59;5009929;28;20046;-68
2022/10/05 07:23:58;;;;;;;20.50;5.80;;;;;;;14.70;78.40;101472.97;5011269;28;20432;-68
2022/10/05 07:26:44;;;;;;;13.77;5.13;;;;;;;14.73;78.44;101483.44;5004619;28;20075;-68
2022/10/05 07:29:45;;;;;;;13.35;5.32;;;;;;;14.79;78.28;101477.94;5024182;28;20050;-68
2022/10/05 07:32:33;;;;;;;19.90;5.25;;;;;;;14.82;77.81;101484.91;5008808;28;20101;-68
2022/10/05 07:39:17;;;;;;;18.95;5.60;;;;;;;14.89;77.69;101492.59;5010637;28;20047;-68
2022/10/05 07:41:55;;;;;;;21.10;5.18;;;;;;;14.96;77.86;101489.69;5023464;28;20046;-68
2022/10/05 07:44:36;;;;;;;7.88;4.80;;;;;;;15.02;77.72;101490.31;5005075;28;20089;-68
2022/10/05 07:47:37;;;;;;;10.55;5.10;;;;;;;15.06;77.11;101486.59;5018709;28;20078;-68
2022/10/05 07:50:38;;;;;;;11.73;4.75;;;;;;;15.13;77.14;101499.66;5026582;28;20053;-68
2022/10/05 07:53:17;;;;;;;6.63;4.20;;;;;;;15.21;76.97;101490.44;5010207;28;20051;-68
2022/10/05 07:55:54;;;;;;;12.40;5.50;;;;;;;15.25;76.73;101485.91;5010263;28;20516;-68
2022/10/05 07:58:40;;;;;;;6.40;4.28;;;;;;;15.32;76.63;101484.72;5011728;28;20050;-68
2022/10/05 08:01:28;;;;;;;18.15;5.20;;;;;;;15.40;76.40;101491.50;5006980;28;20135;-68
2022/10/05 08:04:20;;;;;;;7.45;4.38;;;;;;;15.47;76.36;101487.66;5010381;28;20034;-68
2022/10/05 08:07:01;;;;;;;10.20;4.28;;;;;;;15.52;76.11;101488.34;5011766;28;20544;-68
2022/10/05 08:10:10;;;;;;;6.75;4.22;;;;;;;15.59;75.57;101488.97;5010863;28;20050;-68
2022/10/05 08:13:15;;;;;;;8.10;3.90;;;;;;;15.69;75.17;101485.00;5003774;28;20059;-68
2022/10/05 08:15:50;;;;;;;7.38;4.03;;;;;;;15.75;75.38;101479.44;5007281;28;20077;-68
2022/10/05 08:18:55;;;;;;;7.40;4.00;;;;;;;15.88;75.17;101476.28;5011660;28;20042;-68
2022/10/05 08:21:45;;;;;;;5.72;4.35;;;;;;;15.96;75.25;101468.84;5009167;28;20038;-68
2022/10/05 08:24:39;;;;;;;6.03;3.90;;;;;;;16.06;74.79;101466.66;5023289;28;20053;-68
2022/10/05 08:27:32;;;;;;;8.07;4.03;;;;;;;16.14;74.29;101467.19;5007405;28;20043;-68
2022/10/05 08:30:12;;;;;;;7.72;4.22;;;;;;;16.24;74.09;101467.63;5006124;28;20349;-68
2022/10/05 08:33:15;;;;;;;5.78;3.55;;;;;;;16.32;73.93;101465.53;5009191;28;20057;-68
2022/10/05 08:35:48;;;;;;;10.10;4.10;;;;;;;16.44;73.51;101456.13;5001075;28;20038;-68
2022/10/05 08:38:30;;;;;;;8.88;3.70;;;;;;;16.52;73.41;101458.44;5008054;28;20097;-68
2022/10/05 08:41:45;;;;;;;4.85;3.50;;;;;;;16.60;72.76;101450.97;5008785;28;20046;-68
2022/10/05 08:45:13;;;;;;;7.28;4.20;;;;;;;16.68;72.46;101442.63;5008856;28;20121;-68
2022/10/05 08:48:03;;;;;;;6.55;3.53;;;;;;;16.75;72.52;101446.72;5009059;28;20039;-68
2022/10/05 08:50:42;;;;;;;5.22;3.50;;;;;;;16.86;72.21;101447.09;4995983;28;20064;-68
2022/10/05 08:53:25;;;;;;;6.45;3.55;;;;;;;16.92;71.41;101449.44;5005466;28;20041;-68
2022/10/05 08:56:32;;;;;;;11.57;3.78;;;;;;;16.95;71.33;101448.47;5006753;28;20531;-68
2022/10/05 08:59:57;;;;;;;10.48;3.80;;;;;;;16.99;71.32;101442.06;5004411;28;20057;-68
2022/10/05 09:02:48;;;;;;;9.15;3.75;;;;;;;17.08;71.03;101443.44;5016009;28;20544;-68
2022/10/05 09:05:50;;;;;;;8.98;3.70;;;;;;;17.16;71.03;101443.91;5009748;28;20053;-68
2022/10/05 09:09:09;;;;;;;7.45;3.45;;;;;;;17.25;70.60;101439.06;5012341;28;20046;-68
2022/10/05 09:12:19;;;;;;;6.43;3.45;;;;;;;17.32;70.16;101435.16;5011701;28;20059;-68
2022/10/05 09:15:20;;;;;;;8.57;3.72;;;;;;;17.35;69.29;101427.88;5014207;28;20112;-67
2022/10/05 09:18:26;;;;;;;13.13;3.78;;;;;;;17.40;69.16;101432.97;5015730;28;20123;-68
2022/10/05 09:21:11;;;;;;;6.13;3.20;;;;;;;17.46;69.19;101432.69;5012620;28;20046;-68
2022/10/05 09:23:42;;;;;;;4.57;2.97;;;;;;;17.51;69.10;101422.63;5013890;28;20145;-67
2022/10/05 09:26:44;;;;;;;9.70;3.58;;;;;;;17.62;69.18;101435.44;5013542;28;20038;-68
2022/10/05 09:29:41;;;;;;;12.70;4.05;;;;;;;17.73;68.63;101434.03;5013705;28;20046;-67
2022/10/05 09:32:56;;;;;;;7.88;3.33;;;;;;;17.81;68.07;101432.69;5013903;28;20034;-69
2022/10/05 09:36:05;;;;;;;5.55;3.03;;;;;;;17.89;68.30;101426.13;5015437;28;20042;-69
2022/10/05 09:39:13;;;;;;;8.20;3.20;;;;;;;17.99;67.34;101428.25;5006551;28;20078;-67
2022/10/05 09:42:37;;;;;;;7.65;3.30;;;;;;;18.08;66.95;101426.91;5010894;28;20039;-70
2022/10/05 09:45:47;;;;;;;8.95;3.55;;;;;;;18.15;67.18;101425.63;5008199;28;20065;-70
2022/10/05 09:48:38;;;;;;;7.15;3.08;;;;;;;18.24;66.38;101416.28;5010424;28;20050;-69
2022/10/05 09:51:55;;;;;;;14.90;3.20;;;;;;;18.32;66.19;101418.50;5004902;28;20131;-69
2022/10/05 09:55:19;;;;;;;6.97;2.80;;;;;;;18.42;66.40;101414.41;5010921;28;20050;-67
2022/10/05 09:58:01;;;;;;;5.55;2.80;;;;;;;18.52;65.94;101416.59;5010966;28;20046;-70
2022/10/05 10:00:37;;;;;;;4.25;2.47;;;;;;;18.57;65.71;101412.69;5013310;28;20038;-70
2022/10/05 10:03:25;;;;;;;8.95;2.75;;;;;;;18.65;65.85;101408.75;5012973;28;20085;-70
2022/10/05 10:06:21;;;;;;;10.80;2.85;;;;;;;18.69;65.72;101413.84;5007144;28;20631;-70
2022/10/05 10:09:25;;;;;;;9.02;2.90;;;;;;;18.73;64.59;101402.03;5010069;28;20554;-70
2022/10/05 10:12:26;;;;;;;6.10;2.42;;;;;;;18.75;64.13;101408.16;5011337;28;20579;-69
2022/10/05 10:15:36;;;;;;;11.05;2.47;;;;;;;18.79;64.05;101395.47;5008719;28;20133;-69
2022/10/05 10:18:06;;;;;;;5.85;2.53;;;;;;;18.80;63.92;101394.53;5011485;28;20492;-69
2022/10/05 10:21:01;;;;;;;3.50;2.10;;;;;;;18.90;64.04;101386.88;5006548;28;20092;-70
2022/10/05 10:23:59;;;;;;;;;;;;;;;18.93;64.63;101387.59;5008964;28;20094;-69
2022/10/05 10:26:57;;;;;;;7.95;2.33;;;;;;;19.09;64.87;101384.91;5010272;28;20052;-69
2022/10/05 10:30:02;;;;;;;14.20;2.72;;;;;;;19.24;64.01;101377.81;5009898;28;20045;-69
2022/10/05 10:33:10;;;;;;;14.02;2.83;;;;;;;19.32;63.94;101368.47;5008132;28;20046;-69
2022/10/05 10:35:52;;;;;;;8.73;2.80;;;;;;;19.40;63.17;101371.53;5008285;28;20037;-70
2022/10/05 10:39:02;;;;;;;6.65;2.20;;;;;;;19.50;63.27;101366.53;5012953;28;20054;-69
2022/10/05 10:42:02;;;;;;;6.05;2.10;;;;;;;19.58;61.83;101356.22;5009535;28;20116;-69
2022/10/05 10:45:04;;;;;;;3.53;2.20;;;;;;;19.60;61.93;101362.34;5004114;28;20101;-69
2022/10/05 10:47:46;;;;;;;3.83;1.90;;;;;;;19.64;61.87;101344.31;5009487;28;20047;-69
2022/10/05 10:50:32;;;;;;;4.88;1.90;;;;;;;19.69;61.92;101355.56;5007360;28;20479;-70
2022/10/05 10:53:20;;;;;;;5.30;2.10;;;;;;;19.75;61.62;101344.50;5002652;28;20097;-70
2022/10/05 10:56:12;;;;;;;4.30;1.67;;;;;;;19.81;61.39;101341.44;5014800;28;20050;-70
2022/10/05 10:59:40;;;;;;;4.05;1.95;;;;;;;19.91;61.10;101341.78;5011897;28;20115;-69
2022/10/05 11:02:36;;;;;;;4.30;2.05;;;;;;;19.96;61.23;101341.50;5004133;28;20487;-67
2022/10/05 11:05:37;;;;;;;10.82;2.20;;;;;;;19.97;59.81;101330.69;5010789;28;20068;-69
2022/10/05 11:08:48;;;;;;;12.50;2.28;;;;;;;20.00;60.71;101327.84;5008398;28;20038;-70
2022/10/05 11:11:37;;;;;;;7.68;1.98;;;;;;;20.06;60.61;101331.06;5006922;28;20053;-70
2022/10/05 11:14:56;;;;;;;5.72;1.55;;;;;;;20.14;59.98;101329.63;5007520;28;20095;-70
2022/10/05 11:18:00;;;;;;;85.93;6.10;;;;;;;20.23;59.46;101320.19;5001499;28;20054;-70
2022/10/05 11:21:22;;;;;;;18.65;2.40;;;;;;;20.19;59.44;101320.47;5010071;28;20066;-70
2022/10/05 11:24:37;;;;;;;8.07;1.70;;;;;;;20.21;59.50;101314.06;5006326;28;20101;-70
2022/10/05 11:27:30;;;;;;;7.40;1.80;;;;;;;20.33;59.41;101310.59;4997135;28;20481;-69
2022/10/05 11:30:21;;;;;;;14.57;2.15;;;;;;;20.37;59.03;101308.56;5007911;28;20038;-69
2022/10/05 11:33:23;;;;;;;15.75;2.35;;;;;;;20.48;58.30;101302.50;5005825;28;20117;-69
2022/10/05 11:36:02;;;;;;;4.70;1.70;;;;;;;20.48;58.99;101303.41;5002976;28;20042;-70
2022/10/05 11:38:51;;;;;;;15.02;2.20;;;;;;;20.63;57.88;101298.84;5010220;28;20041;-70
2022/10/05 11:41:58;;;;;;;11.02;1.75;;;;;;;20.66;58.32;101299.59;5010596;28;20492;-70
2022/10/05 11:44:52;;;;;;;5.05;1.60;;;;;;;20.72;58.09;101293.84;5026175;28;20133;-69
2022/10/05 11:48:03;;;;;;;10.15;2.10;;;;;;;20.79;57.93;101287.13;5011455;28;20038;-70
2022/10/05 11:51:16;;;;;;;9.77;1.63;;;;;;;20.76;57.95;101274.81;5010997;28;20105;-69
2022/10/05 11:54:18;;;;;;;4.97;1.60;;;;;;;20.82;57.14;101284.25;5003406;28;20069;-70
2022/10/05 11:57:04;;;;;;;22.52;2.38;;;;;;;20.88;57.27;101266.91;5003233;28;20050;-70
2022/10/05 11:59:53;;;;;;;13.15;2.20;;;;;;;21.00;57.21;101254.50;5010475;28;20038;-70
2022/10/05 12:02:52;;;;;;;20.52;2.30;;;;;;;21.10;57.43;101261.84;5009533;28;20046;-70
2022/10/05 12:05:48;;;;;;;4.80;1.70;;;;;;;21.07;57.60;101262.03;5005757;28;20134;-70
2022/10/05 12:08:36;;;;;;;23.75;3.03;;;;;;;21.26;57.27;101256.25;5008562;28;20054;-70
2022/10/05 12:11:03;;;;;;;9.20;1.90;;;;;;;21.44;56.86;101245.22;5007178;28;20043;-70
2022/10/05 12:13:50;;;;;;;11.23;2.20;;;;;;;21.53;56.13;101249.94;5009746;28;20053;-70
2022/10/05 12:16:38;;;;;;;9.05;1.90;;;;;;;21.63;55.44;101231.38;5010361;28;20101;-70
2022/10/05 12:19:10;;;;;;;5.55;1.70;;;;;;;21.75;55.21;101223.44;5007547;28;20062;-69
2022/10/05 12:22:32;;;;;;;25.67;2.78;;;;;;;21.93;55.52;101229.31;5007132;28;20038;-70
2022/10/05 12:25:05;;;;;;;13.05;2.30;;;;;;;21.86;54.24;101210.97;5010720;28;20066;-71
2022/10/05 12:27:39;;;;;;;14.45;2.03;;;;;;;21.97;54.36;101215.56;5009090;28;20093;-69
2022/10/05 12:30:28;;;;;;;11.85;1.60;;;;;;;22.01;54.48;101211.69;5010542;28;20042;-70
2022/10/05 12:33:05;;;;;;;7.70;1.45;;;;;;;21.89;54.57;101204.53;5004095;28;20073;-71
2022/10/05 12:35:52;;;;;;;3.50;1.40;;;;;;;21.93;54.95;101202.47;4999959;28;20045;-68
2022/10/05 12:38:31;;;;;;;11.60;1.50;;;;;;;21.95;54.21;101203.22;5014650;28;20039;-69
2022/10/05 12:41:39;;;;;;;7.47;1.90;;;;;;;22.05;54.13;101190.84;5009102;28;20054;-69
2022/10/05 12:44:34;;;;;;;9.60;1.30;;;;;;;22.08;54.61;101195.13;5024851;28;20120;-69
2022/10/05 12:47:26;;;;;;;2.92;1.15;;;;;;;22.14;54.34;101190.16;5008113;28;20041;-68
2022/10/05 12:50:13;;;;;;;5.18;1.30;;;;;;;22.14;54.49;101187.47;5012481;28;20103;-68
2022/10/05 12:53:21;;;;;;;9.40;1.70;;;;;;;22.09;54.18;101188.78;5026810;28;20112;-69
2022/10/05 12:57:03;;;;;;;4.15;1.20;;;;;;;21.96;54.66;101192.38;5010123;28;20452;-68
2022/10/05 12:59:52;;;;;;;7.80;1.27;;;;;;;22.24;54.65;101190.31;4962211;28;20542;-68
2022/10/05 13:03:01;;;;;;;6.00;1.30;;;;;;;22.47;54.22;101183.28;5014357;28;20756;-68
2022/10/05 13:06:08;;;;;;;7.95;1.23;;;;;;;22.40;53.56;101181.13;5009029;28;20120;-68
2022/10/05 13:08:59;;;;;;;4.03;1.23;;;;;;;22.36;53.25;101190.38;5010149;28;20054;-68
2022/10/05 13:11:59;;;;;;;11.88;1.30;;;;;;;22.24;54.02;101195.69;5006094;28;20046;-68
2022/10/05 13:15:22;;;;;;;4.78;1.10;;;;;;;22.53;53.06;101195.41;5005812;28;20043;-68
2022/10/05 13:18:34;;;;;;;8.30;1.80;;;;;;;22.46;53.64;101184.25;5009793;28;20042;-69
2022/10/05 13:21:18;;;;;;;10.60;1.48;;;;;;;22.49;54.13;101186.69;5009903;28;20050;-68